createdAt,value
2018-03-15T00:00:53.060Z,13.07
2018-03-15T00:03:26.206Z,13.65
2018-03-15T00:05:54.304Z,11.88
2018-03-15T00:08:21.855Z,11.98
2018-03-15T00:10:49.446Z,13.30
2018-03-15T00:13:16.937Z,12.07
2018-03-15T00:15:44.449Z,13.32
2018-03-15T00:18:11.983Z,13.82
2018-03-15T00:20:39.580Z,13.82
2018-03-15T00:23:07.070Z,13.27
2018-03-15T00:25:34.586Z,13.02
2018-03-15T00:28:02.130Z,13.57
2018-03-15T00:30:29.641Z,12.88
2018-03-15T00:32:57.212Z,13.10
2018-03-15T00:35:25.194Z,13.73
2018-03-15T00:37:52.676Z,13.57
2018-03-15T00:40:20.247Z,13.95
2018-03-15T00:42:47.841Z,14.20
2018-03-15T00:45:15.828Z,11.70
2018-03-15T00:47:43.311Z,13.57
2018-03-15T00:50:11.217Z,14.23
2018-03-15T00:52:38.796Z,13.95
2018-03-15T00:55:06.290Z,13.50
2018-03-15T00:57:33.777Z,14.27
2018-03-15T01:00:01.764Z,13.48
2018-03-15T01:02:29.253Z,15.15
2018-03-15T01:04:57.153Z,14.10
2018-03-15T01:07:25.124Z,15.30
2018-03-15T01:09:52.624Z,14.18
2018-03-15T01:12:20.509Z,14.15
2018-03-15T01:14:48.036Z,13.45
2018-03-15T01:17:15.520Z,13.65
2018-03-15T01:19:43.017Z,14.40
2018-03-15T01:22:10.537Z,12.88
2018-03-15T01:24:38.107Z,13.43
2018-03-15T01:27:05.608Z,13.07
2018-03-15T01:29:33.096Z,14.55
2018-03-15T01:32:01.076Z,12.60
2018-03-15T01:34:28.669Z,13.15
2018-03-15T01:36:56.173Z,13.18
2018-03-15T01:39:24.153Z,13.60
2018-03-15T01:41:52.056Z,14.82
2018-03-15T01:44:19.928Z,11.50
2018-03-15T01:46:47.517Z,13.80
2018-03-15T01:49:15.003Z,12.27
2018-03-15T01:51:42.576Z,11.82
2018-03-15T01:54:10.208Z,13.43
2018-03-15T01:56:37.749Z,13.23
2018-03-15T01:59:05.336Z,13.23
2018-03-15T02:01:32.838Z,12.90
2018-03-15T02:04:00.726Z,12.52
2018-03-15T02:06:28.629Z,13.32
2018-03-15T02:08:56.517Z,13.20
2018-03-15T02:11:24.413Z,13.50
2018-03-15T02:13:52.379Z,13.18
2018-03-15T02:16:19.880Z,12.77
2018-03-15T02:18:47.860Z,12.98
2018-03-15T02:21:15.360Z,12.85
2018-03-15T02:23:43.252Z,12.10
2018-03-15T02:26:11.233Z,13.98
2018-03-15T02:28:38.803Z,13.65
2018-03-15T02:31:06.301Z,12.27
2018-03-15T02:33:33.799Z,11.32
2018-03-15T02:36:01.763Z,13.38
2018-03-15T02:38:29.255Z,12.80
2018-03-15T02:40:56.840Z,13.00
2018-03-15T02:43:24.431Z,13.43
2018-03-15T02:45:52.337Z,11.45
2018-03-15T02:48:20.230Z,11.25
2018-03-15T02:50:48.191Z,13.70
2018-03-15T02:53:15.697Z,12.32
2018-03-15T02:55:43.572Z,12.48
2018-03-15T02:58:11.068Z,12.77
2018-03-15T03:00:38.949Z,10.27
2018-03-15T03:03:06.466Z,11.88
2018-03-15T03:05:33.960Z,10.95
2018-03-15T03:08:01.497Z,13.57
2018-03-15T03:10:29.080Z,12.95
2018-03-15T03:12:56.575Z,12.48
2018-03-15T03:15:24.065Z,13.25
2018-03-15T03:17:51.974Z,10.50
2018-03-15T03:20:19.457Z,11.25
2018-03-15T03:22:47.420Z,12.88
2018-03-15T03:25:14.909Z,12.70
2018-03-15T03:27:42.489Z,11.38
2018-03-15T03:30:10.073Z,11.68
2018-03-15T03:32:37.582Z,10.73
2018-03-15T03:35:05.484Z,12.75
2018-03-15T03:37:32.998Z,12.25
2018-03-15T03:40:00.476Z,12.45
2018-03-15T03:42:27.977Z,11.27
2018-03-15T03:44:55.469Z,12.60
2018-03-15T03:47:23.064Z,11.45
2018-03-15T03:49:50.549Z,12.50
2018-03-15T03:52:18.131Z,10.00
2018-03-15T03:54:45.616Z,11.35
2018-03-15T03:57:13.191Z,10.93
2018-03-15T03:59:40.775Z,11.68
2018-03-15T04:02:08.377Z,10.45
2018-03-15T04:04:35.859Z,11.52
2018-03-15T04:07:03.369Z,12.85
2018-03-15T04:09:30.851Z,12.43
2018-03-15T04:11:58.748Z,11.50
2018-03-15T04:14:26.296Z,11.70
2018-03-15T04:16:53.888Z,10.98
2018-03-15T04:19:21.401Z,12.57
2018-03-15T04:21:48.958Z,10.60
2018-03-15T04:24:16.862Z,9.35
2018-03-15T04:26:44.833Z,10.32
2018-03-15T04:29:12.327Z,11.85
2018-03-15T04:31:39.905Z,10.43
2018-03-15T04:34:07.483Z,10.23
2018-03-15T04:36:34.964Z,9.80
2018-03-15T04:39:02.547Z,11.65
2018-03-15T04:41:30.146Z,10.95
2018-03-15T04:43:57.648Z,12.75
2018-03-15T04:46:25.617Z,11.85
2018-03-15T04:48:53.117Z,9.13
2018-03-15T04:51:20.998Z,11.50
2018-03-15T04:53:48.984Z,12.13
2018-03-15T04:56:16.563Z,10.35
2018-03-15T04:58:44.055Z,10.60
2018-03-15T05:01:11.636Z,11.05
2018-03-15T05:03:39.237Z,11.57
2018-03-15T05:06:07.226Z,11.00
2018-03-15T05:08:34.738Z,10.48
2018-03-15T05:11:02.222Z,11.20
2018-03-15T05:13:29.723Z,10.95
2018-03-15T05:15:57.217Z,10.88
2018-03-15T05:18:24.733Z,11.95
2018-03-15T05:20:52.211Z,9.38
2018-03-15T05:23:19.712Z,9.38
2018-03-15T05:25:47.597Z,10.60
2018-03-15T05:28:15.106Z,9.70
2018-03-15T05:30:42.651Z,9.88
2018-03-15T05:33:10.235Z,10.05
2018-03-15T05:35:37.726Z,11.00
2018-03-15T05:38:05.230Z,9.63
2018-03-15T05:40:33.137Z,8.50
2018-03-15T05:43:00.630Z,11.18
2018-03-15T05:45:28.138Z,9.95
2018-03-15T05:47:55.682Z,11.63
2018-03-15T05:50:23.575Z,11.30
2018-03-15T05:52:51.545Z,10.57
2018-03-15T05:55:19.045Z,9.80
2018-03-15T05:57:46.923Z,10.20
2018-03-15T06:00:14.432Z,11.02
2018-03-15T06:02:42.719Z,10.65
2018-03-15T06:05:10.661Z,10.52
2018-03-15T06:07:38.176Z,10.65
2018-03-15T06:10:05.676Z,9.60
2018-03-15T06:12:33.556Z,10.43
2018-03-15T06:15:01.065Z,9.88
2018-03-15T06:17:28.944Z,9.45
2018-03-15T06:19:56.912Z,8.70
2018-03-15T06:22:24.388Z,9.38
2018-03-15T06:24:51.989Z,9.85
2018-03-15T06:27:19.573Z,11.70
2018-03-15T06:29:47.165Z,10.35
2018-03-15T06:32:14.738Z,11.02
2018-03-15T06:34:42.324Z,10.82
2018-03-15T06:37:09.808Z,10.90
2018-03-15T06:39:37.309Z,9.35
2018-03-15T06:42:05.287Z,10.50
2018-03-15T06:44:32.869Z,7.65
2018-03-15T06:47:00.352Z,9.82
2018-03-15T06:49:27.858Z,10.50
2018-03-15T06:51:55.736Z,9.50
2018-03-15T06:54:23.317Z,10.57
2018-03-15T06:56:50.812Z,10.25
2018-03-15T06:59:18.316Z,10.85
2018-03-15T07:01:45.864Z,10.00
2018-03-15T07:04:13.351Z,9.68
2018-03-15T07:06:40.937Z,9.18
2018-03-15T07:09:09.515Z,9.82
2018-03-15T07:11:37.025Z,10.45
2018-03-15T07:14:04.603Z,10.25
2018-03-15T07:16:32.195Z,10.57
2018-03-15T07:19:00.181Z,10.68
2018-03-15T07:21:27.685Z,10.57
2018-03-15T07:23:55.655Z,10.27
2018-03-15T07:26:23.249Z,10.55
2018-03-15T07:28:50.736Z,11.57
2018-03-15T07:31:18.308Z,9.40
2018-03-15T07:33:45.906Z,10.27
2018-03-15T07:36:13.408Z,9.13
2018-03-15T07:38:41.369Z,10.82
2018-03-15T07:41:08.955Z,10.90
2018-03-15T07:43:36.444Z,10.27
2018-03-15T07:46:03.944Z,11.07
2018-03-15T07:48:31.428Z,10.50
2018-03-15T07:50:59.316Z,10.00
2018-03-15T07:53:27.201Z,10.48
2018-03-15T07:55:54.777Z,12.37
2018-03-15T07:58:22.361Z,10.23
2018-03-15T08:00:49.949Z,9.07
2018-03-15T08:03:17.433Z,10.82
2018-03-15T08:05:44.948Z,10.65
2018-03-15T08:08:12.575Z,10.35
2018-03-15T08:10:40.185Z,10.07
2018-03-15T08:13:07.673Z,8.98
2018-03-15T08:15:35.177Z,9.10
2018-03-15T08:18:03.068Z,9.50
2018-03-15T08:20:31.041Z,10.13
2018-03-15T08:22:58.525Z,9.27
2018-03-15T08:25:26.026Z,9.65
2018-03-15T08:27:53.913Z,9.98
2018-03-15T08:30:21.796Z,9.23
2018-03-15T08:32:49.781Z,9.70
2018-03-15T08:35:17.266Z,9.63
2018-03-15T08:37:44.771Z,8.88
2018-03-15T08:40:12.337Z,8.80
2018-03-15T08:42:40.240Z,8.77
2018-03-15T08:45:07.751Z,8.27
2018-03-15T08:47:35.257Z,9.10
2018-03-15T08:50:02.740Z,8.15
2018-03-15T08:52:30.245Z,8.43
2018-03-15T08:54:57.729Z,9.35
2018-03-15T08:57:25.245Z,8.73
2018-03-15T08:59:52.734Z,7.85
2018-03-15T09:02:20.232Z,7.93
2018-03-15T09:04:47.813Z,9.57
2018-03-15T09:07:15.336Z,7.65
2018-03-15T09:09:42.820Z,9.00
2018-03-15T09:12:10.356Z,8.55
2018-03-15T09:14:37.840Z,7.85
2018-03-15T09:17:05.395Z,9.15
2018-03-15T09:19:32.865Z,8.48
2018-03-15T09:22:00.387Z,8.55
2018-03-15T09:24:27.863Z,7.35
2018-03-15T09:26:55.444Z,8.38
2018-03-15T09:29:23.317Z,8.45
2018-03-15T09:31:51.325Z,7.95
2018-03-15T09:34:18.831Z,7.70
2018-03-15T09:36:46.352Z,6.35
2018-03-15T09:39:13.870Z,7.68
2018-03-15T09:41:41.397Z,8.40
2018-03-15T09:44:08.889Z,7.85
2018-03-15T09:46:36.500Z,7.62
2018-03-15T09:49:04.404Z,7.68
2018-03-15T09:51:32.394Z,8.65
2018-03-15T09:54:00.295Z,8.15
2018-03-15T09:56:27.837Z,11.95
2018-03-15T09:58:55.353Z,9.80
2018-03-15T10:01:23.355Z,7.55
2018-03-15T10:03:50.880Z,7.82
2018-03-15T10:06:18.397Z,10.85
2018-03-15T10:08:45.938Z,7.28
2018-03-15T10:11:13.489Z,7.53
2018-03-15T10:13:41.070Z,8.00
2018-03-15T10:16:08.982Z,7.27
2018-03-15T10:18:36.560Z,8.15
2018-03-15T10:21:04.120Z,7.25
2018-03-15T10:23:31.712Z,7.53
2018-03-15T10:25:59.625Z,7.30
2018-03-15T10:28:27.200Z,6.13
2018-03-15T10:30:54.821Z,6.00
2018-03-15T10:33:27.941Z,6.23
2018-03-15T10:35:55.454Z,7.50
2018-03-15T10:38:22.976Z,7.03
2018-03-15T10:40:50.540Z,6.20
2018-03-15T10:43:18.464Z,6.50
2018-03-15T10:45:45.974Z,6.17
2018-03-15T10:48:13.518Z,7.10
2018-03-15T10:50:41.027Z,6.30
2018-03-15T10:53:08.548Z,6.43
2018-03-15T10:55:36.048Z,6.47
2018-03-15T10:58:03.965Z,5.30
2018-03-15T11:00:37.023Z,7.77
2018-03-15T11:03:10.359Z,6.60
2018-03-15T11:05:43.669Z,6.77
2018-03-15T11:08:16.829Z,6.27
2018-03-15T11:10:44.429Z,5.17
2018-03-15T11:13:11.958Z,5.53
2018-03-15T11:15:39.465Z,6.07
2018-03-15T11:18:07.390Z,5.70
2018-03-15T11:20:34.941Z,5.20
2018-03-15T11:23:02.533Z,6.50
2018-03-15T11:25:30.116Z,5.83
2018-03-15T11:27:58.033Z,5.90
2018-03-15T11:30:25.541Z,5.60
2018-03-15T11:32:53.083Z,5.37
2018-03-15T11:35:21.007Z,5.50
2018-03-15T11:37:48.508Z,5.40
2018-03-15T11:40:16.038Z,5.50
2018-03-15T11:42:43.945Z,6.30
2018-03-15T11:45:11.948Z,5.90
2018-03-15T11:47:39.639Z,6.00
2018-03-15T11:50:07.208Z,5.33
2018-03-15T11:52:34.777Z,5.20
2018-03-15T11:55:02.691Z,4.60
2018-03-15T11:57:30.192Z,5.63
2018-03-15T11:59:57.705Z,5.97
2018-03-15T12:02:25.221Z,5.23
2018-03-15T12:04:53.224Z,5.13
2018-03-15T12:07:21.216Z,5.37
2018-03-15T12:09:49.136Z,5.60
2018-03-15T12:12:16.698Z,5.40
2018-03-15T12:14:44.704Z,5.27
2018-03-15T12:17:12.439Z,6.13
2018-03-15T12:19:39.936Z,5.03
2018-03-15T12:22:07.445Z,5.23
2018-03-15T12:24:34.950Z,5.40
2018-03-15T12:27:02.920Z,5.07
2018-03-15T12:29:30.499Z,5.33
2018-03-15T12:31:57.991Z,6.37
2018-03-15T12:34:25.501Z,5.47
2018-03-15T12:36:53.077Z,5.57
2018-03-15T12:39:21.043Z,5.10
2018-03-15T12:41:48.637Z,5.73
2018-03-15T12:44:16.225Z,5.03
2018-03-15T12:46:43.715Z,4.73
2018-03-15T12:49:11.621Z,4.30
2018-03-15T12:51:39.596Z,4.67
2018-03-15T12:54:07.183Z,5.33
2018-03-15T12:56:34.769Z,4.50
2018-03-15T12:59:02.272Z,4.70
2018-03-15T13:01:30.182Z,4.87
2018-03-15T13:03:57.681Z,5.00
2018-03-15T13:06:25.308Z,6.00
2018-03-15T13:08:52.805Z,4.83
2018-03-15T13:11:20.790Z,5.40
2018-03-15T13:13:48.369Z,5.10
2018-03-15T13:16:15.889Z,11.70
2018-03-15T13:18:43.376Z,4.50
2018-03-15T13:21:10.876Z,5.43
2018-03-15T13:23:38.363Z,5.60
2018-03-15T13:26:05.883Z,5.20
2018-03-15T13:28:33.372Z,5.20
2018-03-15T13:31:00.960Z,5.37
2018-03-15T13:33:28.537Z,4.87
2018-03-15T13:35:57.068Z,5.00
2018-03-15T13:38:25.042Z,4.70
2018-03-15T13:40:52.540Z,4.03
2018-03-15T13:43:20.425Z,5.03
2018-03-15T13:45:47.924Z,5.10
2018-03-15T13:48:15.888Z,4.97
2018-03-15T13:50:43.392Z,4.80
2018-03-15T13:53:11.383Z,4.60
2018-03-15T13:55:39.279Z,4.90
2018-03-15T13:58:07.261Z,5.10
2018-03-15T14:00:34.847Z,4.17
2018-03-15T14:03:02.332Z,4.23
2018-03-15T14:05:29.912Z,4.03
2018-03-15T14:07:57.396Z,4.60
2018-03-15T14:10:24.897Z,3.70
2018-03-15T14:12:52.785Z,3.43
2018-03-15T14:15:20.683Z,4.07
2018-03-15T14:17:48.565Z,3.93
2018-03-15T14:20:16.468Z,3.30
2018-03-15T14:22:43.969Z,3.87
2018-03-15T14:25:11.508Z,4.50
2018-03-15T14:27:39.105Z,4.30
2018-03-15T14:30:07.016Z,5.10
2018-03-15T14:32:34.577Z,4.00
2018-03-15T14:35:02.137Z,3.50
2018-03-15T14:37:29.602Z,4.10
2018-03-15T14:39:57.089Z,3.80
2018-03-15T14:42:24.597Z,3.87
2018-03-15T14:44:52.194Z,3.90
2018-03-15T14:47:19.709Z,5.00
2018-03-15T14:49:47.196Z,3.80
2018-03-15T14:52:14.739Z,4.73
2018-03-15T14:54:42.633Z,4.80
2018-03-15T14:57:10.243Z,3.90
2018-03-15T14:59:37.804Z,4.50
2018-03-15T15:02:05.413Z,5.10
2018-03-15T15:04:32.896Z,6.07
2018-03-15T15:07:00.412Z,4.30
2018-03-15T15:09:27.901Z,5.80
2018-03-15T15:11:55.402Z,5.57
2018-03-15T15:14:22.876Z,4.37
2018-03-15T15:16:50.380Z,4.30
2018-03-15T15:19:17.869Z,4.13
2018-03-15T15:21:45.377Z,4.30
2018-03-15T15:24:13.251Z,4.30
2018-03-15T15:26:41.147Z,4.40
2018-03-15T15:29:09.031Z,3.90
2018-03-15T15:31:36.932Z,4.37
2018-03-15T15:34:04.816Z,4.10
2018-03-15T15:36:32.721Z,4.53
2018-03-15T15:39:00.595Z,4.60
2018-03-15T15:41:28.188Z,4.13
2018-03-15T15:43:55.869Z,3.70
2018-03-15T15:46:23.457Z,3.42
2018-03-15T15:48:51.035Z,4.80
2018-03-15T15:51:18.548Z,3.87
2018-03-15T15:53:46.041Z,3.67
2018-03-15T15:56:13.537Z,4.20
2018-03-15T15:58:41.044Z,3.70
2018-03-15T16:01:08.534Z,4.20
2018-03-15T16:03:36.047Z,3.27
2018-03-15T16:06:03.559Z,4.10
2018-03-15T16:08:31.068Z,3.90
2018-03-15T16:10:58.591Z,3.50
2018-03-15T16:13:26.109Z,3.10
2018-03-15T16:15:53.674Z,3.80
2018-03-15T16:18:21.658Z,3.90
2018-03-15T16:20:49.556Z,3.80
2018-03-15T16:23:17.585Z,4.20
2018-03-15T16:25:45.124Z,3.78
2018-03-15T16:28:12.703Z,3.73
2018-03-15T16:30:40.200Z,3.75
2018-03-15T16:33:08.193Z,3.70
2018-03-15T16:35:36.071Z,4.00
2018-03-15T16:38:03.581Z,3.47
2018-03-15T16:40:31.112Z,3.70
2018-03-15T16:42:58.633Z,12.95
2018-03-15T16:45:26.532Z,6.87
2018-03-15T16:47:54.448Z,3.83
2018-03-15T16:50:21.944Z,4.22
2018-03-15T16:52:49.482Z,4.62
2018-03-15T16:55:17.463Z,3.95
2018-03-15T16:57:44.968Z,3.87
2018-03-15T17:00:12.912Z,4.45
2018-03-15T17:02:40.440Z,4.78
2018-03-15T17:05:08.425Z,3.30
2018-03-15T17:07:35.933Z,3.63
2018-03-15T17:10:03.420Z,6.73
2018-03-15T17:12:30.928Z,4.80
2018-03-15T17:14:58.466Z,4.57
2018-03-15T17:17:25.977Z,4.70
2018-03-15T17:19:53.558Z,4.50
2018-03-15T17:22:21.056Z,5.07
2018-03-15T17:24:48.631Z,6.10
2018-03-15T17:27:16.095Z,5.70
2018-03-15T17:29:44.005Z,5.15
2018-03-15T17:32:11.578Z,5.62
2018-03-15T17:34:39.149Z,4.72
2018-03-15T17:37:07.037Z,4.82
2018-03-15T17:39:34.939Z,5.43
2018-03-15T17:42:02.911Z,4.30
2018-03-15T17:44:30.412Z,4.72
2018-03-15T17:46:58.306Z,4.43
2018-03-15T17:49:26.279Z,5.07
2018-03-15T17:51:53.867Z,4.05
2018-03-15T17:54:21.389Z,4.60
2018-03-15T17:56:48.945Z,4.37
2018-03-15T17:59:16.855Z,4.30
2018-03-15T18:01:44.353Z,12.20
2018-03-15T18:04:12.029Z,5.32
2018-03-15T18:06:39.584Z,8.07
2018-03-15T18:09:07.088Z,6.62
2018-03-15T18:11:34.971Z,5.30
2018-03-15T18:14:02.880Z,4.47
2018-03-15T18:16:30.412Z,8.48
2018-03-15T18:18:58.037Z,4.75
2018-03-15T18:21:25.925Z,5.62
2018-03-15T18:23:53.829Z,5.20
2018-03-15T18:26:21.716Z,3.87
2018-03-15T18:28:49.628Z,4.85
2018-03-15T18:31:17.132Z,4.45
2018-03-15T18:33:44.631Z,4.40
2018-03-15T18:36:12.139Z,4.55
2018-03-15T18:38:39.740Z,4.95
2018-03-15T18:41:07.728Z,4.72
2018-03-15T18:43:35.304Z,5.43
2018-03-15T18:46:02.796Z,4.20
2018-03-15T18:48:30.319Z,5.40
2018-03-15T18:50:57.805Z,5.93
2018-03-15T18:53:25.345Z,6.87
2018-03-15T18:55:52.930Z,5.97
2018-03-15T18:58:20.460Z,6.05
2018-03-15T19:00:47.956Z,7.00
2018-03-15T19:03:15.443Z,6.75
2018-03-15T19:05:42.957Z,6.28
2018-03-15T19:08:10.594Z,7.65
2018-03-15T19:10:38.129Z,7.45
2018-03-15T19:13:05.781Z,7.37
2018-03-15T19:15:33.629Z,7.85
2018-03-15T19:18:01.522Z,7.37
2018-03-15T19:20:29.421Z,7.85
2018-03-15T19:22:56.912Z,10.07
2018-03-15T19:25:24.408Z,9.15
2018-03-15T19:27:51.908Z,10.10
2018-03-15T19:30:19.407Z,12.98
2018-03-15T19:32:46.900Z,11.25
2018-03-15T19:35:14.497Z,10.25
2018-03-15T19:37:42.375Z,9.07
2018-03-15T19:40:09.921Z,9.82
2018-03-15T19:42:37.407Z,10.98
2018-03-15T19:45:04.910Z,9.25
2018-03-15T19:47:32.415Z,9.40
2018-03-15T19:49:59.932Z,10.90
2018-03-15T19:52:27.491Z,9.48
2018-03-15T19:54:55.096Z,9.70
2018-03-15T19:57:22.977Z,9.80
2018-03-15T19:59:50.937Z,9.50
2018-03-15T20:02:18.429Z,9.95
2018-03-15T20:04:45.941Z,9.40
2018-03-15T20:07:13.937Z,9.50
2018-03-15T20:09:41.837Z,11.60
2018-03-15T20:12:09.716Z,10.50
2018-03-15T20:14:37.611Z,8.73
2018-03-15T20:17:05.503Z,11.20
2018-03-15T20:19:33.486Z,11.40
2018-03-15T20:22:01.107Z,10.02
2018-03-15T20:24:33.240Z,10.40
2018-03-15T20:27:00.926Z,10.00
2018-03-15T20:29:28.387Z,10.32
2018-03-15T20:31:55.893Z,10.57
2018-03-15T20:34:23.401Z,10.75
2018-03-15T20:36:50.945Z,10.43
2018-03-15T20:39:24.220Z,12.10
2018-03-15T20:41:52.196Z,11.77
2018-03-15T20:44:20.465Z,11.38
2018-03-15T20:46:53.801Z,12.60
2018-03-15T20:49:21.284Z,12.63
2018-03-15T20:51:48.893Z,12.30
2018-03-15T20:54:16.381Z,11.55
2018-03-15T20:56:44.432Z,12.15
2018-03-15T20:59:11.925Z,11.02
2018-03-15T21:01:39.423Z,12.45
2018-03-15T21:04:07.025Z,12.90
2018-03-15T21:06:34.610Z,13.45
2018-03-15T21:09:02.160Z,12.63
2018-03-15T21:11:29.655Z,7.95
2018-03-15T21:13:57.180Z,12.15
2018-03-15T21:16:25.143Z,11.35
2018-03-15T21:18:52.732Z,11.30
2018-03-15T21:21:20.320Z,12.80
2018-03-15T21:23:47.917Z,12.48
2018-03-15T21:26:15.490Z,12.48
2018-03-15T21:28:43.076Z,12.10
2018-03-15T21:31:10.656Z,12.65
2018-03-15T21:33:38.271Z,12.55
2018-03-15T21:36:06.159Z,13.10
2018-03-15T21:38:34.120Z,12.45
2018-03-15T21:41:01.620Z,12.35
2018-03-15T21:43:29.285Z,13.45
2018-03-15T21:45:56.797Z,13.35
2018-03-15T21:48:24.760Z,13.70
2018-03-15T21:50:52.265Z,13.62
2018-03-15T21:53:19.988Z,13.70
2018-03-15T21:55:47.531Z,13.30
2018-03-15T21:58:15.385Z,15.18
2018-03-15T22:00:42.882Z,12.63
2018-03-15T22:03:10.489Z,13.73
2018-03-15T22:05:37.977Z,12.70
2018-03-15T22:08:05.729Z,13.68
2018-03-15T22:10:33.229Z,14.07
2018-03-15T22:13:00.740Z,13.27
2018-03-15T22:15:28.628Z,13.50
2018-03-15T22:17:56.213Z,14.73
2018-03-15T22:20:23.691Z,14.32
2018-03-15T22:22:51.277Z,13.05
2018-03-15T22:25:18.764Z,13.10
2018-03-15T22:27:46.269Z,13.60
2018-03-15T22:30:14.167Z,13.73
2018-03-15T22:32:42.146Z,14.63
2018-03-15T22:35:10.024Z,13.80
2018-03-15T22:37:37.537Z,14.20
2018-03-15T22:40:05.034Z,13.40
2018-03-15T22:42:32.572Z,12.98
2018-03-15T22:45:00.065Z,13.88
2018-03-15T22:47:27.573Z,14.02
2018-03-15T22:49:55.448Z,14.07
2018-03-15T22:52:23.021Z,12.93
2018-03-15T22:54:50.505Z,15.07
2018-03-15T22:57:18.093Z,12.77
2018-03-15T22:59:45.682Z,12.40
2018-03-15T23:02:13.193Z,14.15
2018-03-15T23:04:41.531Z,12.60
2018-03-15T23:07:09.037Z,13.00
2018-03-15T23:09:36.936Z,12.93
2018-03-15T23:12:04.525Z,14.00
2018-03-15T23:14:32.021Z,14.00
2018-03-15T23:17:00.019Z,14.00
2018-03-15T23:19:27.763Z,15.00
2018-03-15T23:21:55.268Z,17.27
2018-03-15T23:24:22.761Z,15.52
2018-03-15T23:26:50.259Z,15.55
2018-03-15T23:29:18.237Z,15.30
2018-03-15T23:31:46.232Z,16.10
2018-03-15T23:34:13.745Z,16.27
2018-03-15T23:36:41.238Z,15.13
2018-03-15T23:39:08.748Z,15.90
2018-03-15T23:41:36.267Z,14.32
2018-03-15T23:44:04.247Z,16.87
2018-03-15T23:46:31.735Z,17.48
2018-03-15T23:48:59.257Z,17.00
2018-03-15T23:51:26.746Z,17.67
2018-03-15T23:53:54.256Z,18.02
2018-03-15T23:56:21.735Z,17.65
2018-03-15T23:58:49.236Z,17.33
